Notice: Undefined index: wuKey in /home/public/sites/www.plaatinfo.nl/weather28/wuforecast/wualmanac.php on line 27
Welkom op onze vernieuwde website. Er wordt nog verder aan gewerkt.


Bezoek ook deze websites:

Template documentation
and downloads

And another site


U vindt ons ook hier:

Weather Underground



METAR rapporten vliegvelden

   
EHVK - Volkel Rnlafb, Netherlands
Afstand tot: ZW 18 km
Gewijzigd: 20-05-2022 20:11
Bewolking  
Bewolking  
   Wind: Westen 18.5 km/h
Wind: Westen 18.5 km/h
Temperatuur: 14°C
Dauwpunt: 11°C
Vochtigheid: 82%
Barometer: 1016 mb
Bewolking: Bewolking
Zicht: meer dan 10 km
Bewolking: Grotendeels bewolkt 1200 ft,
Bewolking 1400 ft
EHVK 201811Z AUTO 27010KT 240V320 9999 BKN012 OVC014 14/11 Q1016 GRN
EDLV - Niederrhein, Germany
Afstand tot: ZO 25 km
Gewijzigd: 20-05-2022 19:50
Bewolking  
Bewolking  
   Wind: Westen 25.9 km/h
Wind: Westen 25.9 km/h
Temperatuur: 15°C
Dauwpunt: 12°C
Vochtigheid: 82%
Barometer: 1016 mb
Bewolking: Bewolking
Zicht: meer dan 10 km
Bewolking: Grotendeels bewolkt 1100 ft,
Bewolking 1800 ft
EDLV 201750Z 28014KT 260V320 9999 BKN011 OVC018 15/12 Q1016
EHDL - Deelen Rnlafb, Netherlands
Afstand tot: N 35 km
Gewijzigd: 20-05-2022 19:55
Wat regen mogelijk, Grotendeels bewolkt  
Wat regen mogelijk, Grotendeels bewolkt  
   Wind: Westen 14.8 km/h
Wind: Westen 14.8 km/h
Temperatuur: 13°C
Dauwpunt: 12°C
Vochtigheid: 94%
Barometer: 1015 mb
Bewolking: Grotendeels bewolkt
Zicht: meer dan 10 km
Bewolking: Licht bewolkt 700 ft,
Gedeeltelijk bewolkt 1000 ft,
Grotendeels bewolkt 2000 ft
EHDL 201755Z AUTO 27008KT 200V330 9999 -RA FEW007 SCT010 BKN020 13/12 Q1015 GRN
EHEH - Eindhoven Rnlafb, Netherlands
Afstand tot: ZW 48 km
Gewijzigd: 20-05-2022 19:55
Bewolking  
Bewolking  
   Wind: Westen 22.2 km/h
Wind: Westen 22.2 km/h
Temperatuur: 14°C
Dauwpunt: 11°C
Vochtigheid: 82%
Barometer: 1017 mb
Bewolking: Bewolking
Zicht: meer dan 10 km
Bewolking: Gedeeltelijk bewolkt 1100 ft,
Bewolking 1400 ft
EHEH 201755Z AUTO 26012KT 220V320 9999 SCT011 OVC014 14/11 Q1017 GRN BECMG SCT020
EHGR - Gilze-Rijen Rnla, Netherlands
Afstand tot: WZW 70 km
Gewijzigd: 20-05-2022 19:55
  
  
   Wind: Westen 20.4 km/h
Wind: Westen 20.4 km/h
Temperatuur: 13°C
Dauwpunt: 10°C
Vochtigheid: 82%
Barometer: 1017 mb
Zicht: meer dan 10 km
EHGR 201755Z AUTO 26011KT 9999 ////// 13/10 Q1017 BLU
EBBL - Kleine-Brogel(Ba, Belgium
Afstand tot: ZZW 71 km
Gewijzigd: 20-05-2022 19:55
Bewolking  
Bewolking  
   Wind: Westen 20.4 km/h
Wind: Westen 20.4 km/h
Temperatuur: 14°C
Dauwpunt: 11°C
Vochtigheid: 82%
Barometer: 1018 mb
Bewolking: Bewolking
Zicht: meer dan 10 km
Bewolking: Grotendeels bewolkt 1500 ft,
Bewolking 4200 ft
EBBL 201755Z AUTO 27011KT 9999 BKN015/// OVC042/// 14/11 Q1018 WHT

Script ontwikkeld door  Saratoga-weather.org Aangepast voor de template door  Weerstation Leuven

Apparatuur in gebruik:

Weerstation
Davis VP Vue

Weerprogramma
Meteobridge

Weercomputer
MeteoBridge Red +

Webleverancier
mijn Domein

Davis VP Vue

Meteobridge

MeteoBridge Red +

mijn Domein